createdAt,value
2022-11-02T00:02:11.852Z,99.90
2022-11-02T00:04:38.807Z,99.90
2022-11-02T00:07:05.786Z,99.90
2022-11-02T00:09:32.994Z,99.90
2022-11-02T00:12:00.166Z,99.90
2022-11-02T00:14:27.037Z,99.90
2022-11-02T00:16:54.144Z,99.90
2022-11-02T00:19:21.185Z,99.90
2022-11-02T00:21:48.123Z,99.90
2022-11-02T00:24:15.292Z,99.90
2022-11-02T00:26:42.246Z,99.90
2022-11-02T00:29:09.667Z,99.90
2022-11-02T00:31:36.582Z,99.90
2022-11-02T00:34:03.617Z,99.90
2022-11-02T00:36:31.401Z,99.90
2022-11-02T00:38:58.313Z,99.90
2022-11-02T00:41:26.126Z,99.90
2022-11-02T00:43:53.326Z,99.90
2022-11-02T00:46:20.333Z,99.90
2022-11-02T00:48:47.437Z,99.90
2022-11-02T00:51:14.384Z,99.90
2022-11-02T00:53:43.205Z,99.90
2022-11-02T00:56:10.435Z,99.90
2022-11-02T00:58:37.447Z,99.90
2022-11-02T01:01:06.279Z,99.90
2022-11-02T01:03:33.313Z,99.90
2022-11-02T01:06:07.317Z,99.90
2022-11-02T01:08:34.260Z,99.90
2022-11-02T01:11:16.740Z,99.90
2022-11-02T01:13:45.225Z,99.90
2022-11-02T01:16:12.938Z,99.90
2022-11-02T01:18:40.699Z,99.90
2022-11-02T01:21:09.106Z,99.90
2022-11-02T01:23:38.040Z,99.90
2022-11-02T01:26:08.779Z,99.90
2022-11-02T01:28:36.539Z,99.90
2022-11-02T01:31:03.953Z,98.30
2022-11-02T01:33:31.148Z,97.60
2022-11-02T01:35:58.213Z,98.70
2022-11-02T01:38:25.564Z,99.90
2022-11-02T01:40:52.546Z,99.90
2022-11-02T01:43:38.444Z,99.90
2022-11-02T01:46:11.194Z,99.90
2022-11-02T01:48:41.196Z,99.40
2022-11-02T01:51:12.729Z,98.70
2022-11-02T01:53:44.992Z,99.50
2022-11-02T01:56:16.789Z,99.80
2022-11-02T01:58:45.517Z,99.80
2022-11-02T02:01:12.659Z,99.90
2022-11-02T02:03:41.246Z,99.90
2022-11-02T02:06:13.884Z,99.90
2022-11-02T02:08:45.647Z,99.90
2022-11-02T02:11:33.704Z,99.90
2022-11-02T02:14:17.853Z,99.90
2022-11-02T02:16:55.045Z,99.90
2022-11-02T02:19:53.218Z,99.90
2022-11-02T02:22:25.986Z,99.90
2022-11-02T02:25:01.845Z,99.90
2022-11-02T02:28:12.292Z,99.90
2022-11-02T02:30:55.421Z,99.90
2022-11-02T02:33:36.197Z,99.90
2022-11-02T02:36:10.655Z,99.90
2022-11-02T02:38:57.488Z,99.00
2022-11-02T02:41:41.848Z,98.60
2022-11-02T02:44:16.277Z,98.20
2022-11-02T02:46:57.135Z,98.20
2022-11-02T02:49:36.669Z,97.50
2022-11-02T02:52:07.662Z,97.20
2022-11-02T02:54:41.678Z,97.00
2022-11-02T02:57:13.327Z,96.40
2022-11-02T02:59:43.334Z,96.60
2022-11-02T03:02:31.506Z,96.30
2022-11-02T03:04:58.635Z,96.00
2022-11-02T03:07:35.029Z,95.90
2022-11-02T03:10:54.132Z,95.40
2022-11-02T03:13:53.446Z,95.80
2022-11-02T03:16:47.347Z,95.90
2022-11-02T03:19:39.177Z,95.40
2022-11-02T03:22:23.005Z,95.40
2022-11-02T03:25:00.531Z,94.70
2022-11-02T03:27:59.186Z,94.60
2022-11-02T03:30:31.110Z,94.60
2022-11-02T03:33:32.692Z,95.20
2022-11-02T03:36:05.186Z,95.10
2022-11-02T03:38:38.286Z,95.00
2022-11-02T03:41:06.853Z,94.60
2022-11-02T03:43:36.753Z,94.80
2022-11-02T03:46:07.976Z,93.80
2022-11-02T03:48:40.535Z,94.00
2022-11-02T03:51:12.895Z,94.10
2022-11-02T03:53:52.286Z,94.60
2022-11-02T03:56:36.119Z,94.90
2022-11-02T03:59:03.948Z,95.10
2022-11-02T04:01:37.097Z,95.50
2022-11-02T04:04:05.203Z,96.40
2022-11-02T04:06:34.761Z,97.80
2022-11-02T04:09:02.221Z,98.90
2022-11-02T04:11:49.623Z,98.20
2022-11-02T04:14:35.651Z,98.10
2022-11-02T04:17:22.474Z,97.60
2022-11-02T04:19:52.531Z,97.70
2022-11-02T04:22:39.824Z,97.30
2022-11-02T04:25:20.655Z,97.40
2022-11-02T04:28:09.262Z,97.40
2022-11-02T04:31:04.590Z,96.70
2022-11-02T04:33:38.571Z,96.90
2022-11-02T04:36:16.619Z,96.90
2022-11-02T04:38:46.756Z,96.50
2022-11-02T04:41:50.349Z,97.00
2022-11-02T04:44:29.081Z,96.30
2022-11-02T04:47:02.734Z,96.30
2022-11-02T04:49:32.366Z,95.70
2022-11-02T04:51:59.594Z,96.20
2022-11-02T04:54:28.436Z,96.80
2022-11-02T04:57:00.041Z,96.90
2022-11-02T04:59:28.652Z,96.90
2022-11-02T05:01:56.204Z,97.00
2022-11-02T05:04:23.793Z,96.90
2022-11-02T05:06:50.752Z,97.20
2022-11-02T05:09:19.165Z,97.70
2022-11-02T05:11:48.165Z,97.80
2022-11-02T05:14:16.128Z,97.90
2022-11-02T05:16:43.249Z,97.70
2022-11-02T05:19:11.699Z,97.90
2022-11-02T05:21:40.115Z,98.60
2022-11-02T05:24:10.701Z,98.40
2022-11-02T05:26:39.342Z,98.30
2022-11-02T05:29:07.404Z,98.50
2022-11-02T05:31:34.911Z,98.80
2022-11-02T05:34:02.114Z,99.00
2022-11-02T05:36:30.365Z,99.00
2022-11-02T05:38:58.095Z,98.70
2022-11-02T05:41:26.179Z,98.90
2022-11-02T05:43:57.958Z,99.00
2022-11-02T05:46:28.276Z,99.00
2022-11-02T05:48:55.319Z,98.70
2022-11-02T05:51:23.880Z,98.80
2022-11-02T05:53:50.995Z,98.50
2022-11-02T05:56:23.701Z,98.80
2022-11-02T05:58:54.620Z,99.50
2022-11-02T06:01:21.986Z,99.10
2022-11-02T06:03:53.377Z,99.10
2022-11-02T06:06:20.910Z,98.90
2022-11-02T06:08:48.156Z,98.70
2022-11-02T06:11:15.507Z,98.90
2022-11-02T06:13:42.634Z,98.90
2022-11-02T06:16:12.519Z,99.20
2022-11-02T06:18:39.748Z,99.20
2022-11-02T06:21:07.147Z,99.00
2022-11-02T06:23:34.761Z,99.20
2022-11-02T06:26:02.750Z,99.20
2022-11-02T06:28:33.119Z,99.00
2022-11-02T06:31:00.323Z,99.20
2022-11-02T06:33:27.593Z,99.70
2022-11-02T06:35:55.072Z,99.50
2022-11-02T06:38:22.465Z,99.30
2022-11-02T06:41:04.467Z,99.70
2022-11-02T06:43:33.420Z,99.70
2022-11-02T06:46:03.008Z,99.70
2022-11-02T06:48:34.932Z,99.50
2022-11-02T06:51:03.434Z,99.60
2022-11-02T06:53:30.691Z,99.50
2022-11-02T06:56:01.474Z,99.70
2022-11-02T06:58:29.244Z,99.40
2022-11-02T07:01:07.310Z,99.00
2022-11-02T07:03:35.118Z,99.10
2022-11-02T07:06:02.738Z,98.80
2022-11-02T07:08:29.946Z,99.10
2022-11-02T07:10:57.376Z,98.70
2022-11-02T07:13:24.785Z,98.60
2022-11-02T07:15:53.859Z,98.80
2022-11-02T07:18:21.661Z,98.70
2022-11-02T07:20:48.564Z,98.20
2022-11-02T07:23:16.549Z,98.20
2022-11-02T07:25:43.502Z,98.20
2022-11-02T07:28:10.487Z,98.40
2022-11-02T07:30:37.697Z,98.60
2022-11-02T07:33:08.040Z,98.70
2022-11-02T07:35:35.393Z,98.80
2022-11-02T07:38:05.107Z,98.90
2022-11-02T07:40:34.758Z,98.80
2022-11-02T07:43:02.531Z,99.10
2022-11-02T07:45:50.106Z,99.70
2022-11-02T07:48:17.103Z,99.60
2022-11-02T07:50:44.225Z,99.90
2022-11-02T07:53:11.366Z,99.90
2022-11-02T07:55:38.534Z,99.90
2022-11-02T07:58:10.496Z,99.90
2022-11-02T08:00:39.484Z,99.90
2022-11-02T08:03:08.269Z,99.90
2022-11-02T08:05:38.443Z,99.90
2022-11-02T08:08:08.511Z,99.90
2022-11-02T08:10:39.057Z,99.90
2022-11-02T08:13:13.076Z,99.90
2022-11-02T08:15:40.061Z,99.90
2022-11-02T08:18:28.313Z,99.90
2022-11-02T08:20:56.945Z,99.90
2022-11-02T08:23:26.041Z,99.90
2022-11-02T08:25:54.600Z,99.90
2022-11-02T08:28:27.656Z,99.90
2022-11-02T08:30:54.853Z,99.90
2022-11-02T08:33:22.493Z,99.90
2022-11-02T08:35:49.645Z,99.30
2022-11-02T08:38:17.602Z,99.20
2022-11-02T08:40:44.996Z,98.70
2022-11-02T08:43:14.494Z,98.40
2022-11-02T08:48:31.689Z,96.30
2022-11-02T08:50:58.821Z,95.90
2022-11-02T08:53:25.877Z,95.90
2022-11-02T08:55:52.742Z,94.70
2022-11-02T08:58:20.363Z,95.00
2022-11-02T09:00:47.414Z,94.50
2022-11-02T09:03:16.169Z,93.90
2022-11-02T09:05:47.534Z,93.60
2022-11-02T09:08:16.956Z,92.70
2022-11-02T09:10:45.291Z,92.20
2022-11-02T09:13:14.842Z,92.30
2022-11-02T09:15:42.200Z,91.90
2022-11-02T09:18:10.043Z,92.00
2022-11-02T09:20:37.470Z,91.90
2022-11-02T09:23:04.630Z,92.20
2022-11-02T09:25:31.801Z,92.10
2022-11-02T09:28:00.481Z,91.90
2022-11-02T09:30:28.836Z,91.80
2022-11-02T09:32:58.237Z,92.30
2022-11-02T09:35:29.146Z,92.00
2022-11-02T09:37:56.438Z,90.90
2022-11-02T09:40:26.574Z,91.20
2022-11-02T09:43:08.799Z,91.40
2022-11-02T09:46:06.169Z,91.30
2022-11-02T09:48:55.785Z,91.00
2022-11-02T09:51:41.679Z,91.30
2022-11-02T09:54:17.349Z,90.10
2022-11-02T09:56:46.288Z,90.30
2022-11-02T09:59:22.067Z,90.00
2022-11-02T10:02:11.328Z,90.30
2022-11-02T10:04:59.757Z,90.30
2022-11-02T10:08:05.860Z,87.00
2022-11-02T10:10:51.562Z,87.70
2022-11-02T10:13:18.486Z,87.80
2022-11-02T10:15:55.198Z,86.00
2022-11-02T10:18:28.031Z,86.70
2022-11-02T10:21:01.635Z,87.30
2022-11-02T10:23:45.666Z,86.40
2022-11-02T10:26:43.485Z,82.80
2022-11-02T10:29:18.483Z,83.90
2022-11-02T10:31:46.249Z,83.80
2022-11-02T10:34:13.133Z,82.50
2022-11-02T10:37:02.877Z,83.50
2022-11-02T10:39:44.133Z,83.10
2022-11-02T10:42:16.570Z,80.20
2022-11-02T10:45:06.922Z,80.90
2022-11-02T10:47:56.302Z,80.10
2022-11-02T10:51:15.000Z,78.60
2022-11-02T10:53:53.273Z,77.90
2022-11-02T10:56:24.117Z,78.60
2022-11-02T10:59:09.254Z,78.10
2022-11-02T11:01:36.564Z,76.60
2022-11-02T11:04:04.935Z,76.10
2022-11-02T11:06:39.117Z,77.70
2022-11-02T11:09:20.329Z,74.80
2022-11-02T11:12:02.013Z,73.60
2022-11-02T11:20:37.142Z,72.00
2022-11-02T11:23:20.583Z,72.00
2022-11-02T11:26:27.602Z,73.10
2022-11-02T11:28:56.844Z,70.50
2022-11-02T11:31:24.635Z,65.80
2022-11-02T11:34:00.564Z,65.10
2022-11-02T11:36:31.120Z,61.60
2022-11-02T11:39:36.798Z,58.10
2022-11-02T11:42:06.113Z,56.80
2022-11-02T11:44:34.510Z,54.50
2022-11-02T11:47:02.550Z,58.60
2022-11-02T11:50:02.905Z,58.60
2022-11-02T11:52:32.074Z,56.60
2022-11-02T11:55:02.018Z,57.10
2022-11-02T11:57:34.592Z,54.30
2022-11-02T12:00:22.395Z,52.20
2022-11-02T12:03:04.655Z,54.40
2022-11-02T12:05:39.147Z,54.20
2022-11-02T12:08:34.238Z,53.10
2022-11-02T12:11:04.452Z,53.20
2022-11-02T12:13:49.570Z,51.70
2022-11-02T12:17:07.097Z,50.60
2022-11-02T12:19:54.216Z,44.30
2022-11-02T12:23:10.681Z,45.90
2022-11-02T12:25:55.675Z,46.80
2022-11-02T12:28:59.482Z,48.50
2022-11-02T12:31:40.135Z,47.00
2022-11-02T12:34:32.479Z,52.70
2022-11-02T12:37:40.483Z,49.40
2022-11-02T12:40:22.350Z,47.00
2022-11-02T12:43:11.079Z,50.30
2022-11-02T12:46:00.962Z,47.80
2022-11-02T12:48:33.760Z,47.60
2022-11-02T12:51:11.189Z,48.90
2022-11-02T12:53:44.423Z,52.20
2022-11-02T12:56:18.735Z,52.00
2022-11-02T12:58:47.290Z,53.20
2022-11-02T13:01:29.681Z,50.10
2022-11-02T13:04:13.105Z,51.00
2022-11-02T13:06:44.508Z,51.00
2022-11-02T13:09:24.664Z,55.60
2022-11-02T13:12:14.702Z,59.80
2022-11-02T13:14:45.815Z,59.30
2022-11-02T13:17:44.232Z,57.90
2022-11-02T13:20:21.046Z,54.90
2022-11-02T13:22:56.250Z,51.90
2022-11-02T13:25:40.011Z,50.60
2022-11-02T13:28:13.701Z,49.40
2022-11-02T13:30:42.296Z,45.80
2022-11-02T13:33:26.583Z,44.10
2022-11-02T13:35:54.724Z,45.30
2022-11-02T13:38:47.154Z,44.20
2022-11-02T13:41:33.719Z,42.00
2022-11-02T13:44:37.793Z,43.80
2022-11-02T13:47:26.086Z,48.10
2022-11-02T13:49:56.357Z,49.70
2022-11-02T13:52:59.743Z,50.90
2022-11-02T13:55:56.852Z,48.60
2022-11-02T13:58:49.017Z,49.60
2022-11-02T14:01:19.347Z,51.80
2022-11-02T14:04:01.627Z,51.30
2022-11-02T14:06:32.368Z,50.80
2022-11-02T14:09:07.966Z,51.90
2022-11-02T14:11:47.632Z,54.90
2022-11-02T14:14:24.184Z,53.80
2022-11-02T14:16:53.956Z,54.00
2022-11-02T14:19:25.954Z,52.70
2022-11-02T14:22:14.721Z,53.70
2022-11-02T14:24:41.859Z,50.90
2022-11-02T14:27:33.269Z,52.10
2022-11-02T14:30:01.152Z,52.30
2022-11-02T14:32:42.910Z,53.40
2022-11-02T14:35:18.867Z,54.80
2022-11-02T14:38:11.988Z,55.60
2022-11-02T14:41:03.717Z,55.70
2022-11-02T14:43:45.040Z,56.60
2022-11-02T14:46:24.186Z,55.40
2022-11-02T14:48:54.275Z,53.90
2022-11-02T14:51:34.770Z,54.00
2022-11-02T14:54:08.635Z,53.50
2022-11-02T14:57:13.371Z,53.90
2022-11-02T14:59:46.691Z,53.60
2022-11-02T15:02:42.029Z,50.40
2022-11-02T15:05:33.854Z,49.80
2022-11-02T15:08:03.964Z,48.80
2022-11-02T15:10:31.874Z,47.70
2022-11-02T15:13:20.614Z,48.20
2022-11-02T15:15:50.749Z,48.60
2022-11-02T15:18:29.975Z,50.30
2022-11-02T15:21:18.804Z,50.70
2022-11-02T15:24:13.834Z,50.10
2022-11-02T15:26:47.160Z,50.50
2022-11-02T15:29:27.603Z,51.90
2022-11-02T15:31:58.429Z,51.50
2022-11-02T15:34:50.817Z,52.10
2022-11-02T15:37:29.919Z,53.00
2022-11-02T15:40:05.026Z,53.00
2022-11-02T15:42:43.568Z,53.30
2022-11-02T15:45:50.510Z,54.40
2022-11-02T15:48:32.813Z,54.30
2022-11-02T15:51:36.299Z,55.80
2022-11-02T15:54:15.199Z,55.80
2022-11-02T15:57:18.303Z,56.90
2022-11-02T16:00:12.174Z,56.00
2022-11-02T16:02:47.788Z,55.90
2022-11-02T16:05:20.943Z,57.80
2022-11-02T16:10:40.732Z,58.80
2022-11-02T16:13:10.394Z,56.70
2022-11-02T16:15:38.815Z,56.00
2022-11-02T16:18:06.122Z,54.90
2022-11-02T16:20:36.913Z,55.60
2022-11-02T16:23:06.033Z,55.00
2022-11-02T16:25:39.688Z,54.20
2022-11-02T16:28:12.911Z,53.50
2022-11-02T16:30:39.868Z,53.70
2022-11-02T16:33:07.521Z,53.30
2022-11-02T16:35:36.238Z,55.50
2022-11-02T16:38:04.232Z,55.10
2022-11-02T16:40:31.767Z,53.40
2022-11-02T16:42:58.808Z,54.40
2022-11-02T16:45:42.177Z,53.70
2022-11-02T16:48:18.142Z,56.40
2022-11-02T16:51:15.030Z,57.40
2022-11-02T16:53:43.432Z,56.10
2022-11-02T16:56:32.124Z,56.30
2022-11-02T16:59:07.131Z,57.60
2022-11-02T17:01:39.454Z,58.30
2022-11-02T17:04:22.337Z,57.40
2022-11-02T17:06:53.267Z,58.70
2022-11-02T17:09:30.131Z,58.10
2022-11-02T17:12:06.909Z,58.60
2022-11-02T17:14:34.127Z,58.30
2022-11-02T17:17:32.257Z,57.70
2022-11-02T17:20:14.428Z,57.90
2022-11-02T17:23:02.162Z,58.20
2022-11-02T17:25:55.294Z,58.10
2022-11-02T17:28:36.965Z,58.20
2022-11-02T17:31:04.168Z,58.80
2022-11-02T17:33:33.022Z,58.80
2022-11-02T17:36:07.983Z,59.40
2022-11-02T17:38:37.629Z,61.50
2022-11-02T17:41:24.928Z,62.50
2022-11-02T17:43:51.946Z,64.10
2022-11-02T17:46:18.836Z,65.30
2022-11-02T17:48:45.720Z,67.70
2022-11-02T17:51:12.852Z,68.20
2022-11-02T17:53:40.143Z,68.40
2022-11-02T17:56:07.749Z,71.10
2022-11-02T17:58:34.824Z,69.70
2022-11-02T18:01:04.884Z,71.50
2022-11-02T18:03:32.271Z,70.80
2022-11-02T18:06:01.216Z,72.10
2022-11-02T18:08:28.562Z,72.00
2022-11-02T18:10:56.021Z,72.60
2022-11-02T18:13:24.118Z,73.40
2022-11-02T18:15:51.079Z,73.50
2022-11-02T18:18:18.232Z,74.70
2022-11-02T18:20:45.234Z,74.80
2022-11-02T18:23:17.140Z,75.20
2022-11-02T18:25:44.113Z,76.60
2022-11-02T18:28:12.367Z,77.30
2022-11-02T18:30:43.572Z,77.90
2022-11-02T18:33:13.780Z,78.50
2022-11-02T18:35:42.553Z,78.00
2022-11-02T18:38:09.904Z,79.80
2022-11-02T18:40:36.923Z,78.40
2022-11-02T18:43:07.498Z,79.20
2022-11-02T18:45:34.742Z,79.70
2022-11-02T18:48:01.781Z,79.90
2022-11-02T18:50:28.800Z,79.80
2022-11-02T18:52:55.756Z,80.20
2022-11-02T18:55:22.729Z,80.20
2022-11-02T18:57:51.002Z,80.50
2022-11-02T19:00:19.295Z,81.00
2022-11-02T19:02:46.292Z,81.70
2022-11-02T19:05:32.145Z,82.10
2022-11-02T19:08:19.439Z,83.00
2022-11-02T19:10:48.414Z,83.50
2022-11-02T19:13:16.802Z,84.10
2022-11-02T19:15:43.801Z,84.20
2022-11-02T19:18:10.741Z,84.50
2022-11-02T19:20:37.666Z,84.20
2022-11-02T19:23:06.096Z,84.30
2022-11-02T19:25:33.555Z,84.00
2022-11-02T19:28:00.753Z,83.90
2022-11-02T19:30:27.658Z,84.10
2022-11-02T19:32:54.645Z,83.80
2022-11-02T19:35:21.540Z,83.40
2022-11-02T19:37:48.468Z,83.60
2022-11-02T19:40:15.701Z,84.10
2022-11-02T19:42:42.580Z,84.20
2022-11-02T19:45:16.799Z,84.40
2022-11-02T19:47:44.501Z,84.50
2022-11-02T19:50:12.343Z,84.40
2022-11-02T19:52:39.464Z,83.90
2022-11-02T19:55:08.671Z,84.40
2022-11-02T19:57:35.671Z,84.40
2022-11-02T20:00:02.622Z,84.40
2022-11-02T20:02:41.779Z,84.60
2022-11-02T20:05:09.365Z,84.50
2022-11-02T20:07:36.355Z,84.60
2022-11-02T20:10:04.514Z,84.90
2022-11-02T20:12:34.384Z,84.60
2022-11-02T20:15:01.516Z,84.80
2022-11-02T20:17:38.091Z,85.30
2022-11-02T20:20:13.952Z,84.90
2022-11-02T20:22:41.159Z,85.80
2022-11-02T20:25:09.003Z,85.80
2022-11-02T20:27:41.384Z,86.00
2022-11-02T20:30:10.152Z,86.30
2022-11-02T20:32:41.380Z,86.80
2022-11-02T20:35:13.831Z,86.90
2022-11-02T20:37:42.088Z,87.30
2022-11-02T20:40:10.949Z,87.60
2022-11-02T20:42:38.124Z,87.90
2022-11-02T20:45:06.816Z,88.40
2022-11-02T20:47:34.981Z,89.10
2022-11-02T20:50:03.347Z,89.60
2022-11-02T20:52:31.400Z,89.90
2022-11-02T20:54:58.404Z,89.80
2022-11-02T20:57:28.473Z,90.00
2022-11-02T20:59:56.390Z,90.10
2022-11-02T21:02:24.716Z,90.50
2022-11-02T21:04:53.052Z,90.90
2022-11-02T21:07:29.274Z,91.30
2022-11-02T21:09:57.893Z,91.50
2022-11-02T21:12:46.031Z,91.80
2022-11-02T21:15:13.386Z,92.20
2022-11-02T21:17:40.460Z,92.40
2022-11-02T21:22:58.861Z,92.60
2022-11-02T21:25:26.264Z,92.70
2022-11-02T21:27:53.283Z,92.90
2022-11-02T21:30:20.482Z,93.00
2022-11-02T21:32:50.656Z,93.30
2022-11-02T21:35:18.093Z,93.30
2022-11-02T21:37:55.569Z,93.60
2022-11-02T21:40:23.234Z,93.90
2022-11-02T21:42:50.291Z,93.90
2022-11-02T21:45:18.335Z,94.00
2022-11-02T21:47:47.013Z,94.00
2022-11-02T21:50:15.677Z,94.30
2022-11-02T21:52:45.135Z,94.20
2022-11-02T21:55:12.307Z,94.10
2022-11-02T21:57:40.513Z,93.90
2022-11-02T22:00:08.226Z,94.00
2022-11-02T22:02:39.659Z,93.80
2022-11-02T22:05:08.103Z,93.70
2022-11-02T22:07:55.692Z,93.60
2022-11-02T22:10:22.701Z,93.80
2022-11-02T22:13:08.847Z,94.10
2022-11-02T22:15:38.451Z,94.00
2022-11-02T22:18:05.671Z,93.70
2022-11-02T22:20:32.905Z,93.90
2022-11-02T22:23:02.546Z,93.90
2022-11-02T22:25:30.966Z,94.20
2022-11-02T22:27:58.683Z,94.10
2022-11-02T22:30:25.682Z,94.00
2022-11-02T22:32:52.628Z,94.10
2022-11-02T22:35:19.875Z,93.70
2022-11-02T22:38:07.524Z,93.60
2022-11-02T22:40:34.657Z,94.50
2022-11-02T22:43:03.527Z,94.80
2022-11-02T22:45:30.670Z,93.80
2022-11-02T22:47:57.871Z,93.50
2022-11-02T22:50:27.724Z,93.50
2022-11-02T22:52:55.588Z,93.60
2022-11-02T22:55:22.470Z,93.60
2022-11-02T22:57:58.851Z,93.30
2022-11-02T23:00:26.997Z,93.20
2022-11-02T23:02:54.539Z,93.20
2022-11-02T23:05:22.124Z,93.10
2022-11-02T23:07:49.653Z,93.30
2022-11-02T23:10:35.257Z,93.10
2022-11-02T23:13:02.475Z,93.40
2022-11-02T23:15:30.374Z,93.00
2022-11-02T23:17:57.248Z,92.80
2022-11-02T23:20:24.151Z,92.80
2022-11-02T23:22:53.690Z,92.90
2022-11-02T23:25:22.783Z,92.90
2022-11-02T23:28:16.405Z,93.20
2022-11-02T23:31:03.394Z,93.10
2022-11-02T23:33:36.393Z,93.50
2022-11-02T23:36:15.538Z,93.20
2022-11-02T23:39:06.096Z,93.10
2022-11-02T23:41:36.828Z,93.00
2022-11-02T23:44:14.128Z,92.80
2022-11-02T23:46:41.641Z,92.80
2022-11-02T23:49:08.523Z,92.50
2022-11-02T23:51:54.481Z,92.90
2022-11-02T23:54:40.637Z,92.80
2022-11-02T23:57:07.823Z,92.50
2022-11-02T23:59:34.808Z,92.90
